Dachen Dao, China
Current Conditions -  °F | °C
As of 11:00 AM on Sunday 25 Jan 2015 (Local Time) from ZSNB Reporting Station
Haze Haze  
Wind Chill: 61°   Ceiling: Unl
Heat Index: 61°   Visibility: 3mi
Dew Point: 52°   Wind: 4mph
Humidity: 72%   Direction: 190°S
Pressure: 30.12"   Gusts: NA
Location:  28.45°N, 121.88°E
Report Text: ZSNB 250300Z 19002MPS 150V240 5000 BR NSC 16/11 Q1020 NOSIG
Loading
Personal Weather Stations






























Interactive Weather Map New forecast layout! Learn more

10-Day Weather Forecast

Advertisements
Track Severe Weather on mobile